sensor_id;sensor_type;location;lat;lon;timestamp;pressure;altitude;pressure_sealevel;temperature;humidity
69219;BME280;56232;53.384;-2.732;2024-03-29T00:01:58;97406.76;;;5.52;51.90
69219;BME280;56232;53.384;-2.732;2024-03-29T00:04:24;97416.12;;;5.58;51.70
69219;BME280;56232;53.384;-2.732;2024-03-29T00:06:49;97426.86;;;5.51;51.96
69219;BME280;56232;53.384;-2.732;2024-03-29T00:09:15;97430.84;;;5.46;51.79
69219;BME280;56232;53.384;-2.732;2024-03-29T00:11:41;97433.98;;;5.39;51.88
69219;BME280;56232;53.384;-2.732;2024-03-29T00:14:07;97441.91;;;5.88;51.81
69219;BME280;56232;53.384;-2.732;2024-03-29T00:16:32;97444.07;;;5.38;51.66
69219;BME280;56232;53.384;-2.732;2024-03-29T00:18:58;97445.60;;;5.45;51.27
69219;BME280;56232;53.384;-2.732;2024-03-29T00:21:24;97454.22;;;5.30;51.25
69219;BME280;56232;53.384;-2.732;2024-03-29T00:23:50;97455.19;;;5.65;51.35
69219;BME280;56232;53.384;-2.732;2024-03-29T00:26:16;97464.42;;;5.59;51.19
69219;BME280;56232;53.384;-2.732;2024-03-29T00:28:41;97474.45;;;5.54;51.58
69219;BME280;56232;53.384;-2.732;2024-03-29T00:31:07;97479.87;;;5.46;51.29
69219;BME280;56232;53.384;-2.732;2024-03-29T00:33:32;97483.04;;;5.95;51.52
69219;BME280;56232;53.384;-2.732;2024-03-29T00:35:58;97491.17;;;4.95;51.38
69219;BME280;56232;53.384;-2.732;2024-03-29T00:38:24;97495.54;;;5.39;51.34
69219;BME280;56232;53.384;-2.732;2024-03-29T00:40:49;97498.68;;;4.80;51.57
69219;BME280;56232;53.384;-2.732;2024-03-29T00:43:15;97502.23;;;6.06;51.33
69219;BME280;56232;53.384;-2.732;2024-03-29T00:45:41;97505.89;;;5.47;51.32
69219;BME280;56232;53.384;-2.732;2024-03-29T00:48:07;97508.29;;;4.97;51.10
69219;BME280;56232;53.384;-2.732;2024-03-29T00:50:32;97508.41;;;5.51;51.24
69219;BME280;56232;53.384;-2.732;2024-03-29T00:52:58;97515.94;;;4.56;51.13
69219;BME280;56232;53.384;-2.732;2024-03-29T00:55:24;97524.45;;;5.28;50.81
69219;BME280;56232;53.384;-2.732;2024-03-29T00:57:49;97528.05;;;5.28;50.67
69219;BME280;56232;53.384;-2.732;2024-03-29T01:00:16;97530.38;;;5.70;50.39
69219;BME280;56232;53.384;-2.732;2024-03-29T01:02:41;97539.41;;;5.06;50.25
69219;BME280;56232;53.384;-2.732;2024-03-29T01:05:07;97544.74;;;4.95;50.48
69219;BME280;56232;53.384;-2.732;2024-03-29T01:07:32;97553.04;;;5.98;50.58
69219;BME280;56232;53.384;-2.732;2024-03-29T01:09:57;97556.48;;;4.78;50.64
69219;BME280;56232;53.384;-2.732;2024-03-29T01:12:23;97557.99;;;5.17;50.76
69219;BME280;56232;53.384;-2.732;2024-03-29T01:14:49;97562.47;;;4.66;50.67
69219;BME280;56232;53.384;-2.732;2024-03-29T01:17:15;97569.37;;;5.08;50.59
69219;BME280;56232;53.384;-2.732;2024-03-29T01:19:40;97570.66;;;5.01;50.71
69219;BME280;56232;53.384;-2.732;2024-03-29T01:22:05;97574.75;;;5.55;50.78
69219;BME280;56232;53.384;-2.732;2024-03-29T01:24:32;97575.97;;;4.36;50.71
69219;BME280;56232;53.384;-2.732;2024-03-29T01:26:57;97580.03;;;5.49;50.67
69219;BME280;56232;53.384;-2.732;2024-03-29T01:29:23;97584.93;;;5.36;50.63
69219;BME280;56232;53.384;-2.732;2024-03-29T01:31:48;97585.60;;;4.66;50.67
69219;BME280;56232;53.384;-2.732;2024-03-29T01:34:15;97585.85;;;5.20;50.70
69219;BME280;56232;53.384;-2.732;2024-03-29T01:36:40;97578.96;;;5.10;50.93
69219;BME280;56232;53.384;-2.732;2024-03-29T01:39:05;97578.75;;;5.09;51.02
69219;BME280;56232;53.384;-2.732;2024-03-29T01:41:31;97577.24;;;5.07;51.20
69219;BME280;56232;53.384;-2.732;2024-03-29T01:43:57;97577.78;;;5.13;51.22
69219;BME280;56232;53.384;-2.732;2024-03-29T01:46:23;97578.88;;;5.17;51.18
69219;BME280;56232;53.384;-2.732;2024-03-29T01:48:48;97581.97;;;5.30;51.05
69219;BME280;56232;53.384;-2.732;2024-03-29T01:51:15;97582.62;;;5.33;50.98
69219;BME280;56232;53.384;-2.732;2024-03-29T01:53:40;97585.04;;;5.35;50.76
69219;BME280;56232;53.384;-2.732;2024-03-29T01:56:06;97589.40;;;5.32;50.83
69219;BME280;56232;53.384;-2.732;2024-03-29T01:58:31;97595.57;;;4.79;50.77
69219;BME280;56232;53.384;-2.732;2024-03-29T02:00:58;97601.98;;;4.83;50.66
69219;BME280;56232;53.384;-2.732;2024-03-29T02:03:23;97604.11;;;5.34;50.52
69219;BME280;56232;53.384;-2.732;2024-03-29T02:05:49;97607.89;;;4.79;50.61
69219;BME280;56232;53.384;-2.732;2024-03-29T02:08:16;97608.02;;;5.40;50.61
69219;BME280;56232;53.384;-2.732;2024-03-29T02:10:40;97612.98;;;4.94;50.56
69219;BME280;56232;53.384;-2.732;2024-03-29T02:13:06;97618.10;;;5.63;50.65
69219;BME280;56232;53.384;-2.732;2024-03-29T02:15:32;97620.92;;;5.59;50.37
69219;BME280;56232;53.384;-2.732;2024-03-29T02:17:57;97622.49;;;4.59;50.43
69219;BME280;56232;53.384;-2.732;2024-03-29T02:20:23;97625.92;;;4.58;50.77
69219;BME280;56232;53.384;-2.732;2024-03-29T02:22:53;97626.50;;;5.86;49.90
69219;BME280;56232;53.384;-2.732;2024-03-29T02:25:16;97619.67;;;5.98;50.65
69219;BME280;56232;53.384;-2.732;2024-03-29T02:27:40;97621.81;;;6.04;50.58
69219;BME280;56232;53.384;-2.732;2024-03-29T02:30:07;97626.67;;;5.02;50.93
69219;BME280;56232;53.384;-2.732;2024-03-29T02:32:32;97624.28;;;5.17;50.34
69219;BME280;56232;53.384;-2.732;2024-03-29T02:34:58;97626.00;;;5.30;50.57
69219;BME280;56232;53.384;-2.732;2024-03-29T02:37:23;97623.48;;;6.50;50.65
69219;BME280;56232;53.384;-2.732;2024-03-29T02:39:49;97629.84;;;5.43;49.97
69219;BME280;56232;53.384;-2.732;2024-03-29T02:42:16;97631.44;;;5.31;50.22
69219;BME280;56232;53.384;-2.732;2024-03-29T02:44:40;97633.82;;;6.26;50.10
69219;BME280;56232;53.384;-2.732;2024-03-29T02:47:06;97638.13;;;5.01;50.24
69219;BME280;56232;53.384;-2.732;2024-03-29T02:49:32;97644.66;;;6.13;50.12
69219;BME280;56232;53.384;-2.732;2024-03-29T02:51:58;97644.05;;;5.34;49.54
69219;BME280;56232;53.384;-2.732;2024-03-29T02:54:23;97646.01;;;5.17;50.17
69219;BME280;56232;53.384;-2.732;2024-03-29T02:56:49;97648.93;;;4.71;50.00
69219;BME280;56232;53.384;-2.732;2024-03-29T02:59:16;97649.60;;;4.72;50.27
69219;BME280;56232;53.384;-2.732;2024-03-29T03:01:40;97653.25;;;5.29;50.60
69219;BME280;56232;53.384;-2.732;2024-03-29T03:04:06;97659.91;;;5.45;51.00
69219;BME280;56232;53.384;-2.732;2024-03-29T03:06:32;97657.94;;;5.01;50.28
69219;BME280;56232;53.384;-2.732;2024-03-29T03:08:58;97656.78;;;5.96;50.53
69219;BME280;56232;53.384;-2.732;2024-03-29T03:11:23;97660.33;;;6.01;50.61
69219;BME280;56232;53.384;-2.732;2024-03-29T03:13:49;97659.25;;;5.37;50.25
69219;BME280;56232;53.384;-2.732;2024-03-29T03:16:16;97653.95;;;5.16;50.10
69219;BME280;56232;53.384;-2.732;2024-03-29T03:18:40;97654.80;;;5.70;50.57
69219;BME280;56232;53.384;-2.732;2024-03-29T03:21:06;97655.05;;;5.62;49.92
69219;BME280;56232;53.384;-2.732;2024-03-29T03:23:32;97663.25;;;5.44;50.50
69219;BME280;56232;53.384;-2.732;2024-03-29T03:25:59;97666.75;;;5.44;50.62
69219;BME280;56232;53.384;-2.732;2024-03-29T03:28:24;97667.13;;;5.42;50.45
69219;BME280;56232;53.384;-2.732;2024-03-29T03:30:50;97670.00;;;5.26;50.06
69219;BME280;56232;53.384;-2.732;2024-03-29T03:33:20;97672.76;;;4.54;50.29
69219;BME280;56232;53.384;-2.732;2024-03-29T03:35:41;97672.67;;;4.60;50.24
69219;BME280;56232;53.384;-2.732;2024-03-29T03:38:07;97672.51;;;5.23;50.62
69219;BME280;56232;53.384;-2.732;2024-03-29T03:40:32;97676.55;;;5.28;50.32
69219;BME280;56232;53.384;-2.732;2024-03-29T03:42:58;97679.95;;;4.75;50.75
69219;BME280;56232;53.384;-2.732;2024-03-29T03:45:24;97676.96;;;5.41;49.87
69219;BME280;56232;53.384;-2.732;2024-03-29T03:47:50;97677.49;;;5.95;50.01
69219;BME280;56232;53.384;-2.732;2024-03-29T03:50:16;97675.51;;;5.36;50.69
69219;BME280;56232;53.384;-2.732;2024-03-29T03:52:41;97674.85;;;4.85;50.65
69219;BME280;56232;53.384;-2.732;2024-03-29T03:55:07;97671.21;;;5.50;50.41
69219;BME280;56232;53.384;-2.732;2024-03-29T03:57:32;97673.80;;;4.82;50.27
69219;BME280;56232;53.384;-2.732;2024-03-29T03:59:58;97675.83;;;4.75;50.37
69219;BME280;56232;53.384;-2.732;2024-03-29T04:02:23;97676.51;;;5.28;49.93
69219;BME280;56232;53.384;-2.732;2024-03-29T04:04:49;97683.64;;;5.64;49.83
69219;BME280;56232;53.384;-2.732;2024-03-29T04:07:15;97683.81;;;5.07;50.06
69219;BME280;56232;53.384;-2.732;2024-03-29T04:09:41;97685.29;;;5.01;49.52
69219;BME280;56232;53.384;-2.732;2024-03-29T04:12:06;97682.29;;;4.85;49.10
69219;BME280;56232;53.384;-2.732;2024-03-29T04:14:32;97682.80;;;4.71;49.61
69219;BME280;56232;53.384;-2.732;2024-03-29T04:16:58;97687.02;;;5.14;50.15
69219;BME280;56232;53.384;-2.732;2024-03-29T04:19:23;97688.10;;;4.53;50.20
69219;BME280;56232;53.384;-2.732;2024-03-29T04:21:49;97684.81;;;4.49;49.87
69219;BME280;56232;53.384;-2.732;2024-03-29T04:24:16;97690.68;;;4.44;50.13
69219;BME280;56232;53.384;-2.732;2024-03-29T04:26:41;97685.54;;;4.81;50.09
69219;BME280;56232;53.384;-2.732;2024-03-29T04:29:06;97685.16;;;4.35;50.51
69219;BME280;56232;53.384;-2.732;2024-03-29T04:31:32;97689.20;;;4.88;50.78
69219;BME280;56232;53.384;-2.732;2024-03-29T04:33:58;97690.12;;;3.90;50.82
69219;BME280;56232;53.384;-2.732;2024-03-29T04:36:23;97696.71;;;4.58;50.72
69219;BME280;56232;53.384;-2.732;2024-03-29T04:38:49;97698.22;;;4.65;50.38
69219;BME280;56232;53.384;-2.732;2024-03-29T04:41:16;97696.11;;;4.58;49.99
69219;BME280;56232;53.384;-2.732;2024-03-29T04:43:41;97694.67;;;4.58;50.38
69219;BME280;56232;53.384;-2.732;2024-03-29T04:46:10;97695.48;;;4.59;50.50
69219;BME280;56232;53.384;-2.732;2024-03-29T04:48:32;97692.13;;;5.06;50.30
69219;BME280;56232;53.384;-2.732;2024-03-29T04:50:58;97697.21;;;5.14;50.41
69219;BME280;56232;53.384;-2.732;2024-03-29T04:53:24;97695.68;;;5.06;50.33
69219;BME280;56232;53.384;-2.732;2024-03-29T04:55:54;97696.57;;;4.59;50.40
69219;BME280;56232;53.384;-2.732;2024-03-29T04:58:16;97697.23;;;4.56;50.26
69219;BME280;56232;53.384;-2.732;2024-03-29T05:00:42;97698.92;;;4.61;50.36
69219;BME280;56232;53.384;-2.732;2024-03-29T05:03:07;97698.71;;;4.70;50.30
69219;BME280;56232;53.384;-2.732;2024-03-29T05:05:32;97696.92;;;4.16;50.09
69219;BME280;56232;53.384;-2.732;2024-03-29T05:07:58;97697.96;;;4.73;50.09
69219;BME280;56232;53.384;-2.732;2024-03-29T05:10:24;97706.00;;;4.71;49.97
69219;BME280;56232;53.384;-2.732;2024-03-29T05:12:50;97702.44;;;5.22;49.99
69219;BME280;56232;53.384;-2.732;2024-03-29T05:15:16;97708.00;;;4.64;49.48
69219;BME280;56232;53.384;-2.732;2024-03-29T05:17:41;97708.08;;;4.45;49.35
69219;BME280;56232;53.384;-2.732;2024-03-29T05:20:08;97711.67;;;4.33;49.78
69219;BME280;56232;53.384;-2.732;2024-03-29T05:22:32;97711.11;;;4.13;49.73
69219;BME280;56232;53.384;-2.732;2024-03-29T05:24:58;97714.41;;;4.00;50.22
69219;BME280;56232;53.384;-2.732;2024-03-29T05:27:24;97719.07;;;5.00;50.24
69219;BME280;56232;53.384;-2.732;2024-03-29T05:29:49;97725.13;;;3.97;50.25
69219;BME280;56232;53.384;-2.732;2024-03-29T05:32:16;97728.72;;;3.96;49.82
69219;BME280;56232;53.384;-2.732;2024-03-29T05:34:40;97734.38;;;3.91;49.67
69219;BME280;56232;53.384;-2.732;2024-03-29T05:37:05;97735.36;;;4.18;49.55
69219;BME280;56232;53.384;-2.732;2024-03-29T05:39:31;97741.02;;;4.56;49.95
69219;BME280;56232;53.384;-2.732;2024-03-29T05:41:57;97742.18;;;4.07;50.43
69219;BME280;56232;53.384;-2.732;2024-03-29T05:44:22;97749.08;;;3.52;50.09
69219;BME280;56232;53.384;-2.732;2024-03-29T05:46:49;97749.44;;;4.48;50.53
69219;BME280;56232;53.384;-2.732;2024-03-29T05:49:15;97759.81;;;4.47;50.27
69219;BME280;56232;53.384;-2.732;2024-03-29T05:51:40;97755.68;;;3.99;49.99
69219;BME280;56232;53.384;-2.732;2024-03-29T05:54:05;97755.63;;;3.51;50.13
69219;BME280;56232;53.384;-2.732;2024-03-29T05:56:31;97757.98;;;4.05;50.12
69219;BME280;56232;53.384;-2.732;2024-03-29T05:58:57;97755.65;;;4.60;50.43
69219;BME280;56232;53.384;-2.732;2024-03-29T06:01:23;97754.11;;;4.31;50.51
69219;BME280;56232;53.384;-2.732;2024-03-29T06:03:48;97755.27;;;4.04;50.21
69219;BME280;56232;53.384;-2.732;2024-03-29T06:06:15;97757.19;;;5.19;50.10
69219;BME280;56232;53.384;-2.732;2024-03-29T06:08:40;97757.38;;;4.22;49.76
69219;BME280;56232;53.384;-2.732;2024-03-29T06:11:06;97760.29;;;4.20;49.61
69219;BME280;56232;53.384;-2.732;2024-03-29T06:13:31;97760.06;;;4.20;49.46
69219;BME280;56232;53.384;-2.732;2024-03-29T06:15:58;97757.70;;;4.79;49.53
69219;BME280;56232;53.384;-2.732;2024-03-29T06:18:23;97754.91;;;4.79;49.89
69219;BME280;56232;53.384;-2.732;2024-03-29T06:20:49;97755.05;;;4.98;49.68
69219;BME280;56232;53.384;-2.732;2024-03-29T06:23:15;97754.83;;;5.04;49.57
69219;BME280;56232;53.384;-2.732;2024-03-29T06:25:40;97751.59;;;4.56;49.45
69219;BME280;56232;53.384;-2.732;2024-03-29T06:28:06;97751.81;;;4.62;49.37
69219;BME280;56232;53.384;-2.732;2024-03-29T06:30:32;97744.84;;;4.75;49.63
69219;BME280;56232;53.384;-2.732;2024-03-29T06:32:57;97742.29;;;4.20;49.41
69219;BME280;56232;53.384;-2.732;2024-03-29T06:35:23;97740.01;;;4.93;49.62
69219;BME280;56232;53.384;-2.732;2024-03-29T06:37:49;97741.46;;;5.16;49.73
69219;BME280;56232;53.384;-2.732;2024-03-29T06:40:16;97743.23;;;5.31;49.69
69219;BME280;56232;53.384;-2.732;2024-03-29T06:42:40;97748.83;;;5.48;49.85
69219;BME280;56232;53.384;-2.732;2024-03-29T06:45:06;97753.56;;;5.46;49.09
69219;BME280;56232;53.384;-2.732;2024-03-29T06:47:32;97756.21;;;4.91;49.23
69219;BME280;56232;53.384;-2.732;2024-03-29T06:49:57;97753.73;;;5.50;49.69
69219;BME280;56232;53.384;-2.732;2024-03-29T06:52:23;97753.93;;;5.60;49.36
69219;BME280;56232;53.384;-2.732;2024-03-29T06:54:49;97755.13;;;5.87;49.61
69219;BME280;56232;53.384;-2.732;2024-03-29T06:57:16;97753.38;;;7.68;47.95
69219;BME280;56232;53.384;-2.732;2024-03-29T06:59:40;97752.64;;;8.83;48.57
69219;BME280;56232;53.384;-2.732;2024-03-29T07:02:06;97755.61;;;7.98;47.39
69219;BME280;56232;53.384;-2.732;2024-03-29T07:04:32;97753.42;;;7.27;48.48
69219;BME280;56232;53.384;-2.732;2024-03-29T07:06:58;97753.27;;;6.79;48.39
69219;BME280;56232;53.384;-2.732;2024-03-29T07:09:23;97757.67;;;8.01;48.07
69219;BME280;56232;53.384;-2.732;2024-03-29T07:11:50;97753.55;;;8.82;48.19
69219;BME280;56232;53.384;-2.732;2024-03-29T07:14:17;97752.16;;;10.39;48.45
69219;BME280;56232;53.384;-2.732;2024-03-29T07:16:40;97757.60;;;10.54;48.87
69219;BME280;56232;53.384;-2.732;2024-03-29T07:19:06;97758.92;;;10.60;48.79
69219;BME280;56232;53.384;-2.732;2024-03-29T07:21:31;97759.56;;;10.11;48.79
69219;BME280;56232;53.384;-2.732;2024-03-29T07:23:57;97759.10;;;12.17;48.04
69219;BME280;56232;53.384;-2.732;2024-03-29T07:26:23;97763.34;;;12.14;46.96
69219;BME280;56232;53.384;-2.732;2024-03-29T07:28:48;97769.20;;;13.24;46.70
69219;BME280;56232;53.384;-2.732;2024-03-29T07:31:14;97767.80;;;13.54;46.26
69219;BME280;56232;53.384;-2.732;2024-03-29T07:33:39;97770.94;;;14.21;45.59
69219;BME280;56232;53.384;-2.732;2024-03-29T07:36:06;97772.98;;;13.89;45.75
69219;BME280;56232;53.384;-2.732;2024-03-29T07:38:32;97772.69;;;12.76;46.76
69219;BME280;56232;53.384;-2.732;2024-03-29T07:40:56;97775.69;;;13.64;46.18
69219;BME280;56232;53.384;-2.732;2024-03-29T07:43:22;97779.69;;;14.25;47.08
69219;BME280;56232;53.384;-2.732;2024-03-29T07:45:47;97781.68;;;13.56;45.63
69219;BME280;56232;53.384;-2.732;2024-03-29T07:48:14;97784.21;;;14.05;45.52
69219;BME280;56232;53.384;-2.732;2024-03-29T07:50:39;97784.64;;;14.72;45.39
69219;BME280;56232;53.384;-2.732;2024-03-29T07:53:04;97787.95;;;15.22;44.25
69219;BME280;56232;53.384;-2.732;2024-03-29T07:55:29;97787.12;;;16.01;44.69
69219;BME280;56232;53.384;-2.732;2024-03-29T07:57:55;97793.78;;;15.63;42.54
69219;BME280;56232;53.384;-2.732;2024-03-29T08:00:21;97795.77;;;14.61;39.77
69219;BME280;56232;53.384;-2.732;2024-03-29T08:02:46;97808.29;;;13.10;41.06
69219;BME280;56232;53.384;-2.732;2024-03-29T08:05:12;97803.10;;;11.49;40.71
69219;BME280;56232;53.384;-2.732;2024-03-29T08:07:38;97801.27;;;10.34;43.43
69219;BME280;56232;53.384;-2.732;2024-03-29T08:10:04;97804.36;;;10.86;42.79
69219;BME280;56232;53.384;-2.732;2024-03-29T08:12:29;97804.87;;;9.99;44.27
69219;BME280;56232;53.384;-2.732;2024-03-29T08:14:55;97807.18;;;9.34;44.73
69219;BME280;56232;53.384;-2.732;2024-03-29T08:17:20;97809.54;;;9.33;45.53
69219;BME280;56232;53.384;-2.732;2024-03-29T08:19:46;97807.91;;;9.15;46.03
69219;BME280;56232;53.384;-2.732;2024-03-29T08:22:12;97807.95;;;9.80;47.17
69219;BME280;56232;53.384;-2.732;2024-03-29T08:24:37;97808.71;;;10.39;47.28
69219;BME280;56232;53.384;-2.732;2024-03-29T08:27:03;97806.53;;;10.41;46.68
69219;BME280;56232;53.384;-2.732;2024-03-29T08:29:29;97808.14;;;10.20;47.29
69219;BME280;56232;53.384;-2.732;2024-03-29T08:31:54;97809.05;;;10.24;46.94
69219;BME280;56232;53.384;-2.732;2024-03-29T08:34:20;97807.91;;;9.31;45.61
69219;BME280;56232;53.384;-2.732;2024-03-29T08:36:45;97807.05;;;9.29;46.14
69219;BME280;56232;53.384;-2.732;2024-03-29T08:39:11;97812.30;;;8.96;46.70
69219;BME280;56232;53.384;-2.732;2024-03-29T08:41:37;97811.60;;;8.77;46.92
69219;BME280;56232;53.384;-2.732;2024-03-29T08:44:03;97810.55;;;8.96;47.14
69219;BME280;56232;53.384;-2.732;2024-03-29T08:46:28;97810.33;;;8.06;48.31
69219;BME280;56232;53.384;-2.732;2024-03-29T08:48:54;97810.99;;;8.35;48.84
69219;BME280;56232;53.384;-2.732;2024-03-29T08:51:20;97809.95;;;9.33;48.84
69219;BME280;56232;53.384;-2.732;2024-03-29T08:53:45;97809.23;;;9.32;47.42
69219;BME280;56232;53.384;-2.732;2024-03-29T08:56:11;97809.79;;;9.87;48.57
69219;BME280;56232;53.384;-2.732;2024-03-29T08:58:37;97816.65;;;10.50;48.33
69219;BME280;56232;53.384;-2.732;2024-03-29T09:01:04;97816.85;;;10.76;49.48
69219;BME280;56232;53.384;-2.732;2024-03-29T09:03:28;97816.79;;;10.73;49.48
69219;BME280;56232;53.384;-2.732;2024-03-29T09:05:53;97821.99;;;11.24;49.44
69219;BME280;56232;53.384;-2.732;2024-03-29T09:08:19;97825.19;;;11.73;48.74
69219;BME280;56232;53.384;-2.732;2024-03-29T09:10:44;97824.34;;;11.39;48.50
69219;BME280;56232;53.384;-2.732;2024-03-29T09:13:10;97822.10;;;12.33;47.31
69219;BME280;56232;53.384;-2.732;2024-03-29T09:15:36;97827.11;;;12.02;47.81
69219;BME280;56232;53.384;-2.732;2024-03-29T09:18:01;97829.99;;;12.22;46.93
69219;BME280;56232;53.384;-2.732;2024-03-29T09:20:27;97831.11;;;12.33;46.98
69219;BME280;56232;53.384;-2.732;2024-03-29T09:22:52;97824.06;;;12.99;45.32
69219;BME280;56232;53.384;-2.732;2024-03-29T09:25:18;97831.15;;;12.97;46.18
69219;BME280;56232;53.384;-2.732;2024-03-29T09:27:45;97827.31;;;14.30;46.62
69219;BME280;56232;53.384;-2.732;2024-03-29T09:30:11;97827.29;;;14.54;43.48
69219;BME280;56232;53.384;-2.732;2024-03-29T09:32:35;97823.24;;;16.08;43.51
69219;BME280;56232;53.384;-2.732;2024-03-29T09:35:00;97813.36;;;17.11;41.89
69219;BME280;56232;53.384;-2.732;2024-03-29T09:37:26;97816.84;;;18.73;45.46
69219;BME280;56232;53.384;-2.732;2024-03-29T09:39:52;97819.57;;;19.12;41.19
69219;BME280;56232;53.384;-2.732;2024-03-29T09:42:19;97819.39;;;19.26;41.70
69219;BME280;56232;53.384;-2.732;2024-03-29T09:44:44;97828.16;;;18.99;39.62
69219;BME280;56232;53.384;-2.732;2024-03-29T09:47:09;97825.14;;;19.42;39.53
69219;BME280;56232;53.384;-2.732;2024-03-29T09:49:34;97819.99;;;19.29;37.67
69219;BME280;56232;53.384;-2.732;2024-03-29T09:52:00;97826.58;;;20.25;39.34
69219;BME280;56232;53.384;-2.732;2024-03-29T09:54:27;97823.37;;;18.85;38.25
69219;BME280;56232;53.384;-2.732;2024-03-29T09:56:50;97821.14;;;19.02;38.90
69219;BME280;56232;53.384;-2.732;2024-03-29T09:59:17;97825.02;;;18.62;37.91
69219;BME280;56232;53.384;-2.732;2024-03-29T10:01:42;97829.90;;;18.38;36.92
69219;BME280;56232;53.384;-2.732;2024-03-29T10:04:08;97832.86;;;18.10;36.51
69219;BME280;56232;53.384;-2.732;2024-03-29T10:06:34;97833.19;;;17.77;36.73
69219;BME280;56232;53.384;-2.732;2024-03-29T10:09:00;97842.73;;;17.76;37.80
69219;BME280;56232;53.384;-2.732;2024-03-29T10:11:24;97840.25;;;16.90;38.49
69219;BME280;56232;53.384;-2.732;2024-03-29T10:13:50;97834.49;;;17.02;40.10
69219;BME280;56232;53.384;-2.732;2024-03-29T10:16:18;97837.02;;;16.77;41.74
69219;BME280;56232;53.384;-2.732;2024-03-29T10:18:41;97838.00;;;17.35;38.48
69219;BME280;56232;53.384;-2.732;2024-03-29T10:21:07;97841.65;;;17.13;39.96
69219;BME280;56232;53.384;-2.732;2024-03-29T10:23:32;97840.64;;;17.02;40.65
69219;BME280;56232;53.384;-2.732;2024-03-29T10:25:57;97847.14;;;17.00;38.81
69219;BME280;56232;53.384;-2.732;2024-03-29T10:28:31;97839.16;;;16.49;40.10
69219;BME280;56232;53.384;-2.732;2024-03-29T10:30:48;97838.99;;;16.46;39.69
69219;BME280;56232;53.384;-2.732;2024-03-29T10:33:14;97844.69;;;16.03;38.17
69219;BME280;56232;53.384;-2.732;2024-03-29T10:35:41;97849.48;;;16.02;40.37
69219;BME280;56232;53.384;-2.732;2024-03-29T10:38:04;97861.86;;;15.15;39.96
69219;BME280;56232;53.384;-2.732;2024-03-29T10:40:30;97858.02;;;14.52;40.30
69219;BME280;56232;53.384;-2.732;2024-03-29T10:42:56;97860.76;;;14.08;41.10
69219;BME280;56232;53.384;-2.732;2024-03-29T10:45:22;97864.11;;;13.75;41.97
69219;BME280;56232;53.384;-2.732;2024-03-29T10:47:47;97863.83;;;13.83;42.35
69219;BME280;56232;53.384;-2.732;2024-03-29T10:50:13;97859.26;;;14.19;42.52
69219;BME280;56232;53.384;-2.732;2024-03-29T10:52:39;97857.74;;;15.26;40.85
69219;BME280;56232;53.384;-2.732;2024-03-29T10:55:04;97855.99;;;14.89;42.97
69219;BME280;56232;53.384;-2.732;2024-03-29T10:57:30;97850.35;;;14.74;43.35
69219;BME280;56232;53.384;-2.732;2024-03-29T11:00:02;97856.82;;;16.01;41.97
69219;BME280;56232;53.384;-2.732;2024-03-29T11:02:33;97855.78;;;15.54;42.52
69219;BME280;56232;53.384;-2.732;2024-03-29T11:04:46;97852.31;;;15.32;42.33
69219;BME280;56232;53.384;-2.732;2024-03-29T11:07:19;97853.06;;;15.34;42.56
69219;BME280;56232;53.384;-2.732;2024-03-29T11:09:39;97854.05;;;15.18;40.26
69219;BME280;56232;53.384;-2.732;2024-03-29T11:12:04;97854.33;;;15.17;41.17
69219;BME280;56232;53.384;-2.732;2024-03-29T11:14:33;97853.94;;;15.10;41.40
69219;BME280;56232;53.384;-2.732;2024-03-29T11:16:54;97851.29;;;15.12;42.59
69219;BME280;56232;53.384;-2.732;2024-03-29T11:19:20;97846.98;;;15.32;41.71
69219;BME280;56232;53.384;-2.732;2024-03-29T11:21:46;97847.43;;;15.60;43.24
69219;BME280;56232;53.384;-2.732;2024-03-29T11:24:11;97847.04;;;15.81;43.88
69219;BME280;56232;53.384;-2.732;2024-03-29T11:26:37;97851.20;;;15.20;43.96
69219;BME280;56232;53.384;-2.732;2024-03-29T11:29:02;97852.00;;;14.66;43.23
69219;BME280;56232;53.384;-2.732;2024-03-29T11:31:38;97850.60;;;15.42;43.66
69219;BME280;56232;53.384;-2.732;2024-03-29T11:33:57;97852.37;;;15.69;44.06
69219;BME280;56232;53.384;-2.732;2024-03-29T11:36:20;97851.30;;;15.24;42.20
69219;BME280;56232;53.384;-2.732;2024-03-29T11:38:45;97855.65;;;15.51;44.85
69219;BME280;56232;53.384;-2.732;2024-03-29T11:41:11;97849.41;;;16.46;43.01
69219;BME280;56232;53.384;-2.732;2024-03-29T11:43:36;97847.45;;;15.76;44.53
69219;BME280;56232;53.384;-2.732;2024-03-29T11:46:02;97850.36;;;15.89;43.65
69219;BME280;56232;53.384;-2.732;2024-03-29T11:48:28;97856.04;;;15.81;45.08
69219;BME280;56232;53.384;-2.732;2024-03-29T11:50:53;97857.63;;;15.73;44.46
69219;BME280;56232;53.384;-2.732;2024-03-29T11:53:18;97859.86;;;15.46;40.65
69219;BME280;56232;53.384;-2.732;2024-03-29T11:55:44;97872.60;;;15.65;40.95
69219;BME280;56232;53.384;-2.732;2024-03-29T11:58:09;97874.43;;;15.28;44.53
69219;BME280;56232;53.384;-2.732;2024-03-29T12:00:35;97874.09;;;14.24;43.60
69219;BME280;56232;53.384;-2.732;2024-03-29T12:03:05;97878.16;;;14.16;43.71
69219;BME280;56232;53.384;-2.732;2024-03-29T12:05:26;97874.36;;;15.50;46.77
69219;BME280;56232;53.384;-2.732;2024-03-29T12:07:51;97868.56;;;15.39;42.51
69219;BME280;56232;53.384;-2.732;2024-03-29T12:10:18;97871.03;;;15.83;45.59
69219;BME280;56232;53.384;-2.732;2024-03-29T12:12:43;97867.54;;;16.02;42.78
69219;BME280;56232;53.384;-2.732;2024-03-29T12:15:09;97867.69;;;16.88;44.28
69219;BME280;56232;53.384;-2.732;2024-03-29T12:17:34;97865.56;;;17.28;42.92
69219;BME280;56232;53.384;-2.732;2024-03-29T12:19:59;97855.40;;;17.71;43.00
69219;BME280;56232;53.384;-2.732;2024-03-29T12:22:25;97852.66;;;17.10;39.94
69219;BME280;56232;53.384;-2.732;2024-03-29T12:24:50;97861.35;;;17.36;41.53
69219;BME280;56232;53.384;-2.732;2024-03-29T12:27:18;97857.47;;;17.54;37.22
69219;BME280;56232;53.384;-2.732;2024-03-29T12:29:42;97860.03;;;17.01;37.53
69219;BME280;56232;53.384;-2.732;2024-03-29T12:32:08;97861.44;;;17.72;38.13
69219;BME280;56232;53.384;-2.732;2024-03-29T12:34:33;97868.40;;;17.64;38.91
69219;BME280;56232;53.384;-2.732;2024-03-29T12:36:58;97865.01;;;16.67;36.68
69219;BME280;56232;53.384;-2.732;2024-03-29T12:39:24;97867.81;;;16.98;37.58
69219;BME280;56232;53.384;-2.732;2024-03-29T12:41:49;97862.10;;;16.62;38.21
69219;BME280;56232;53.384;-2.732;2024-03-29T12:44:17;97856.85;;;16.52;37.32
69219;BME280;56232;53.384;-2.732;2024-03-29T12:46:40;97848.55;;;16.50;36.48